Terminal Aerodrome Forecast
Issued by NWS

Home | Current Version | Previous Version | Text Only | Print | Product List | Glossary On
Versions: 1 2 3 4 5 6 7 8 9 10 11 12 13 14 15 16 17
974
FTUS43 KJKL 141726
TAFSME
TAF
KSME 141726Z 1418/1518 VRB03KT P6SM VCTS SCT040CB BKN090
     FM142200 VRB03KT P6SM BKN090
     FM150800 VRB03KT 2SM -SHRA BR OVC020
     FM151100 VRB03KT 1/2SM FG OVC003
     FM151400 VRB03KT 4SM BR BKN010
     FM151600 VRB03KT P6SM BKN015=

USA.gov is the U.S. government's official web portal to all federal, state and local government web resources and services.